Time;durP1;ratioP1;P1;durP2;ratioP2;P2;SDS_P1;SDS_P2;PMS_P1;PMS_P2;Temp;Humidity;BMP_temperature;BMP_pressure;BME280_temperature;BME280_humidity;BME280_pressure;Samples;Min_cycle;Max_cycle;Signal;HPM_P1;HPM_P2
2022/06/21 00:02:19;;;;;;;4.53;4.33;;;;;;;13.35;89.05;65577.16;5096306;28;20244;-69
2022/06/21 00:04:46;;;;;;;4.83;4.53;;;;;;;13.32;89.07;65571.78;5096125;28;20257;-69
2022/06/21 00:07:22;;;;;;;4.50;4.10;;;;;;;13.26;89.29;65570.31;5096465;28;20258;-69
2022/06/21 00:09:50;;;;;;;4.63;4.53;;;;;;;13.20;89.48;65563.66;5095738;28;20200;-69
2022/06/21 00:12:17;;;;;;;5.30;4.90;;;;;;;13.19;89.39;65562.53;5095922;28;20241;-69
2022/06/21 00:14:44;;;;;;;4.10;4.10;;;;;;;13.17;89.70;65563.47;5095882;28;20248;-69
2022/06/21 00:17:13;;;;;;;4.50;4.50;;;;;;;13.12;90.39;65560.50;5095378;28;20228;-69
2022/06/21 00:19:43;;;;;;;5.23;4.87;;;;;;;13.04;90.84;65558.91;5102286;28;20188;-69
2022/06/21 00:22:15;;;;;;;4.03;3.93;;;;;;;12.98;90.87;65541.81;5116127;28;20701;-69
2022/06/21 00:24:42;;;;;;;4.40;4.40;;;;;;;12.92;91.30;65531.03;5116411;28;20173;-69
2022/06/21 00:27:17;;;;;;;4.90;4.80;;;;;;;12.86;91.88;65524.38;5116042;28;20213;-69
2022/06/21 00:29:44;;;;;;;5.00;5.00;;;;;;;12.87;91.83;65535.91;5086687;28;20220;-70
2022/06/21 00:32:16;;;;;;;4.63;4.53;;;;;;;12.79;91.97;65514.00;5095372;28;20317;-69
2022/06/21 00:34:44;;;;;;;4.10;4.10;;;;;;;12.85;92.24;65528.47;5077338;28;20659;-69
2022/06/21 00:37:22;;;;;;;5.00;4.80;;;;;;;12.73;93.04;65522.41;5095915;28;20640;-70
2022/06/21 00:39:51;;;;;;;4.70;4.70;;;;;;;12.69;93.63;65502.88;5094015;28;20276;-70
2022/06/21 00:42:31;;;;;;;4.40;4.30;;;;;;;12.61;93.92;65502.38;5096183;28;20213;-70
2022/06/21 00:45:05;;;;;;;4.67;4.57;;;;;;;12.56;94.34;65496.81;5095131;28;20190;-70
2022/06/21 00:47:39;;;;;;;4.57;4.43;;;;;;;12.53;94.14;65496.09;5095832;28;20235;-70
2022/06/21 00:50:30;;;;;;;5.17;5.17;;;;;;;12.50;93.98;65487.00;5095747;28;20212;-69
2022/06/21 00:53:18;;;;;;;5.20;5.00;;;;;;;12.42;94.79;65480.72;5094632;28;20202;-69
2022/06/21 00:55:56;;;;;;;4.93;4.83;;;;;;;12.37;94.74;65473.69;5106454;28;20220;-69
2022/06/21 00:58:30;;;;;;;4.70;4.63;;;;;;;12.36;94.72;65480.38;5097338;28;20183;-70
2022/06/21 01:01:03;;;;;;;9.87;5.13;;;;;;;12.28;95.37;65457.91;5095271;28;20671;-70
2022/06/21 01:03:44;;;;;;;5.07;4.80;;;;;;;12.22;95.83;65459.09;5095575;28;20217;-70
2022/06/21 01:06:23;;;;;;;5.10;5.00;;;;;;;12.18;95.82;65450.00;5093733;28;20348;-70
2022/06/21 01:09:00;;;;;;;5.03;4.77;;;;;;;12.17;95.98;65446.28;5100409;28;20218;-70
2022/06/21 01:11:32;;;;;;;8.07;4.60;;;;;;;12.13;95.46;65449.63;5115389;28;20547;-69
2022/06/21 01:14:01;;;;;;;4.50;4.23;;;;;;;12.05;95.11;65438.16;5115657;28;20222;-69
2022/06/21 01:16:30;;;;;;;5.77;4.97;;;;;;;11.93;94.77;65422.81;5106586;28;20223;-69
2022/06/21 01:18:57;;;;;;;4.17;4.07;;;;;;;11.73;95.41;65406.34;5098086;28;20186;-69
2022/06/21 01:21:24;;;;;;;5.03;4.67;;;;;;;11.69;95.47;65396.69;5114799;28;20274;-69
2022/06/21 01:23:59;;;;;;;4.87;4.87;;;;;;;11.67;95.79;65397.09;5114982;28;20204;-69
2022/06/21 01:26:40;;;;;;;4.93;4.83;;;;;;;11.69;95.86;65398.75;5114937;28;20581;-69
2022/06/21 01:29:31;;;;;;;4.30;4.20;;;;;;;11.69;95.51;65401.91;5114888;28;20177;-69
2022/06/21 01:32:05;;;;;;;5.00;4.80;;;;;;;11.70;95.80;65405.59;5113195;28;20232;-70
2022/06/21 01:34:32;;;;;;;4.83;4.50;;;;;;;11.66;96.59;65390.78;5105027;28;20229;-69
2022/06/21 01:37:10;;;;;;;4.53;4.43;;;;;;;11.67;97.62;65394.47;5093879;28;20212;-70
2022/06/21 01:39:48;;;;;;;8.43;4.00;;;;;;;11.58;98.53;65385.06;5099313;28;20273;-71
2022/06/21 01:42:25;;;;;;;4.70;4.60;;;;;;;11.51;99.18;65376.75;5102115;28;20232;-69
2022/06/21 01:44:57;;;;;;;4.57;4.57;;;;;;;11.47;99.53;65372.84;5108902;28;20662;-70
2022/06/21 01:47:30;;;;;;;4.27;4.27;;;;;;;11.45;99.40;65370.09;5094458;28;20183;-69
2022/06/21 01:50:03;;;;;;;5.37;4.87;;;;;;;11.37;98.43;65364.38;5094192;28;20674;-70
2022/06/21 01:52:34;;;;;;;4.87;4.77;;;;;;;11.18;98.00;65351.63;5092793;28;20209;-69
2022/06/21 01:55:09;;;;;;;4.60;4.50;;;;;;;11.14;98.03;65333.66;5093799;28;20240;-70
2022/06/21 01:57:38;;;;;;;5.30;5.10;;;;;;;11.05;98.70;65323.69;5094230;28;20177;-70
2022/06/21 02:00:06;;;;;;;4.57;4.40;;;;;;;10.99;99.25;65325.38;5097520;28;20597;-70
2022/06/21 02:02:43;;;;;;;4.07;4.07;;;;;;;10.97;99.55;65315.34;5094255;28;20217;-69
2022/06/21 02:05:13;;;;;;;4.47;4.37;;;;;;;10.94;99.97;65317.78;5093455;28;20178;-69
2022/06/21 02:07:45;;;;;;;4.73;4.50;;;;;;;10.95;100.00;65328.72;5093475;28;20276;-69
2022/06/21 02:10:24;;;;;;;5.30;5.20;;;;;;;11.03;100.00;65335.00;5093320;28;20263;-69
2022/06/21 02:12:59;;;;;;;5.13;5.03;;;;;;;11.03;100.00;65327.75;5093264;28;20694;-69
2022/06/21 02:15:40;;;;;;;6.03;5.87;;;;;;;11.07;100.00;65336.81;5093588;28;20227;-69
2022/06/21 02:18:11;;;;;;;4.90;4.80;;;;;;;11.05;100.00;65331.47;5093899;28;20676;-69
2022/06/21 02:20:47;;;;;;;5.50;5.30;;;;;;;11.00;100.00;65318.69;5094104;28;20715;-70
2022/06/21 02:23:16;;;;;;;4.80;4.60;;;;;;;10.98;100.00;65326.84;5101211;28;20229;-69
2022/06/21 02:25:44;;;;;;;5.50;5.40;;;;;;;10.97;100.00;65320.56;5093333;28;20185;-70
2022/06/21 02:28:14;;;;;;;4.87;4.67;;;;;;;10.87;100.00;65306.88;5093077;28;20229;-70
2022/06/21 02:30:41;;;;;;;4.67;4.67;;;;;;;;;;5107706;28;20601;-70
2022/06/21 02:33:14;;;;;;;6.20;5.17;;;;;;;10.70;100.00;65299.50;5113680;28;20690;-70
2022/06/21 02:35:46;;;;;;;4.87;4.87;;;;;;;10.68;100.00;65302.50;5094492;28;20194;-70
2022/06/21 02:38:20;;;;;;;5.13;4.80;;;;;;;10.65;100.00;65286.19;5093407;28;20181;-70
2022/06/21 02:40:59;;;;;;;5.33;5.23;;;;;;;10.54;100.00;65271.41;5092455;28;20192;-70
2022/06/21 02:43:40;;;;;;;5.63;5.33;;;;;;;10.38;100.00;65253.69;5097801;28;20192;-70
2022/06/21 02:46:09;;;;;;;5.00;4.90;;;;;;;10.29;100.00;65259.81;5093200;28;20239;-69
2022/06/21 02:48:46;;;;;;;5.27;5.17;;;;;;;10.29;100.00;65246.84;5093563;28;20217;-69
2022/06/21 02:51:19;;;;;;;5.23;5.13;;;;;;;10.25;100.00;65250.19;5098776;28;20228;-70
2022/06/21 02:53:57;;;;;;;5.30;5.10;;;;;;;10.30;100.00;65250.00;5103725;28;20197;-70
2022/06/21 02:56:26;;;;;;;6.40;5.93;;;;;;;10.26;100.00;65251.31;5092942;28;20745;-69
2022/06/21 02:58:57;;;;;;;5.53;5.33;;;;;;;10.27;100.00;65246.66;5093215;28;20212;-69
2022/06/21 03:01:26;;;;;;;5.40;5.23;;;;;;;10.26;100.00;65245.56;5093608;28;20318;-69
2022/06/21 03:03:53;;;;;;;5.83;5.47;;;;;;;10.28;100.00;65255.56;5093142;28;20220;-69
2022/06/21 03:06:21;;;;;;;5.20;4.90;;;;;;;10.31;100.00;65251.66;5093157;28;20652;-69
2022/06/21 03:08:56;;;;;;;5.23;5.23;;;;;;;10.35;100.00;65250.34;5092727;28;20248;-69
2022/06/21 03:11:28;;;;;;;5.37;5.27;;;;;;;10.37;100.00;65257.75;5092606;28;20241;-70
2022/06/21 03:13:56;;;;;;;6.43;6.17;;;;;;;10.36;100.00;65252.03;5093617;28;20190;-69
2022/06/21 03:16:23;;;;;;;5.17;5.00;;;;;;;10.36;100.00;65254.06;5094691;28;20205;-69
2022/06/21 03:18:52;;;;;;;5.57;5.03;;;;;;;10.32;100.00;65250.16;5097443;28;20186;-69
2022/06/21 03:21:29;;;;;;;6.27;5.87;;;;;;;10.29;100.00;65249.44;5111484;28;20233;-70
2022/06/21 03:23:58;;;;;;;5.93;5.53;;;;;;;10.29;100.00;65243.72;5097198;28;20200;-70
2022/06/21 03:26:28;;;;;;;6.67;6.47;;;;;;;10.28;100.00;65245.19;5097365;28;20242;-70
2022/06/21 03:28:55;;;;;;;6.50;6.17;;;;;;;10.26;100.00;65243.53;5096915;28;20174;-70
2022/06/21 03:31:30;;;;;;;5.97;5.87;;;;;;;10.17;100.00;65236.13;5095878;28;20221;-70
2022/06/21 03:34:03;;;;;;;6.10;5.80;;;;;;;10.20;100.00;65237.41;5097018;28;20204;-70
2022/06/21 03:36:30;;;;;;;5.57;5.30;;;;;;;10.25;100.00;65236.69;5096945;28;20184;-70
2022/06/21 03:39:09;;;;;;;6.57;6.47;;;;;;;10.19;100.00;65238.34;5096587;28;20254;-69
2022/06/21 03:41:43;;;;;;;6.50;6.23;;;;;;;10.20;100.00;65234.25;5096489;28;20620;-69
2022/06/21 03:44:23;;;;;;;6.43;6.13;;;;;;;10.28;100.00;65247.78;5096088;28;20677;-69
2022/06/21 03:47:03;;;;;;;7.77;6.87;;;;;;;10.27;100.00;65254.44;5096992;28;20205;-69
2022/06/21 03:49:38;;;;;;;6.60;6.27;;;;;;;10.36;100.00;65256.66;5096874;28;20598;-70
2022/06/21 03:52:11;;;;;;;6.30;6.10;;;;;;;10.38;100.00;65264.06;5096326;28;20611;-69
2022/06/21 03:54:46;;;;;;;6.17;5.97;;;;;;;10.44;100.00;65265.50;5111338;28;20198;-69
2022/06/21 03:57:20;;;;;;;6.07;5.93;;;;;;;10.42;100.00;65263.84;5095660;28;20196;-71
2022/06/21 03:59:59;;;;;;;7.57;6.97;;;;;;;10.45;100.00;65267.19;5096325;28;20190;-69
2022/06/21 04:02:33;;;;;;;6.23;5.93;;;;;;;10.48;100.00;65267.34;5097078;28;20749;-69
2022/06/21 04:05:22;;;;;;;7.07;6.77;;;;;;;10.62;100.00;65285.44;5096436;28;20573;-69
2022/06/21 04:08:02;;;;;;;6.27;6.00;;;;;;;10.69;100.00;65290.06;5096000;28;20190;-69
2022/06/21 04:10:50;;;;;;;12.47;6.30;;;;;;;10.78;100.00;65302.06;5094952;28;20239;-69
2022/06/21 04:13:32;;;;;;;6.73;6.40;;;;;;;10.83;100.00;65303.00;5095859;28;20234;-69
2022/06/21 04:16:24;;;;;;;5.63;5.53;;;;;;;10.94;100.00;65314.63;5096437;28;20182;-69
2022/06/21 04:19:01;;;;;;;6.73;6.33;;;;;;;11.01;100.00;65338.53;5095605;28;20193;-69
2022/06/21 04:21:48;;;;;;;6.80;6.47;;;;;;;11.07;100.00;65338.88;5095375;28;20630;-69
2022/06/21 04:24:22;;;;;;;7.43;7.03;;;;;;;11.11;100.00;65335.53;5095613;28;20250;-69
2022/06/21 04:27:01;;;;;;;6.40;5.97;;;;;;;11.13;100.00;65340.88;5096288;28;20227;-69
2022/06/21 04:29:33;;;;;;;6.53;6.40;;;;;;;11.16;100.00;65349.41;5094751;28;20231;-70
2022/06/21 04:32:19;;;;;;;5.73;5.67;;;;;;;11.26;100.00;65354.75;5111578;28;20216;-70
2022/06/21 04:34:58;;;;;;;6.30;6.00;;;;;;;11.28;100.00;65362.72;5095329;28;20198;-69
2022/06/21 04:37:33;;;;;;;6.93;6.47;;;;;;;11.35;100.00;65361.56;5095101;28;20193;-69
2022/06/21 04:40:11;;;;;;;6.80;6.60;;;;;;;11.43;100.00;65373.63;5076853;28;20613;-70
2022/06/21 04:42:59;;;;;;;6.87;6.57;;;;;;;11.51;100.00;65392.34;5095755;28;20210;-69
2022/06/21 04:45:46;;;;;;;6.10;5.70;;;;;;;11.65;100.00;65397.47;5095098;28;20217;-68
2022/06/21 04:48:22;;;;;;;6.73;6.23;;;;;;;11.81;100.00;65410.03;5113580;28;20193;-69
2022/06/21 04:50:55;;;;;;;6.70;6.40;;;;;;;11.93;100.00;65422.81;5103331;28;20568;-69
2022/06/21 04:54:00;;;;;;;6.00;5.83;;;;;;;12.03;100.00;65436.50;5098404;28;20217;-68
2022/06/21 04:56:37;;;;;;;6.23;5.73;;;;;;;12.10;100.00;65446.31;5095351;28;20216;-68
2022/06/21 04:59:16;;;;;;;6.67;6.20;;;;;;;12.17;100.00;65453.53;5095562;28;20200;-68
2022/06/21 05:01:42;;;;;;;8.60;6.07;;;;;;;12.17;100.00;65445.72;5094874;28;20711;-70
2022/06/21 05:04:21;;;;;;;6.17;5.97;;;;;;;;;;5094189;28;20181;-69
2022/06/21 05:06:48;;;;;;;5.93;5.10;;;;;;;12.32;100.00;65465.53;5094926;28;20173;-68
2022/06/21 05:09:16;;;;;;;8.23;4.77;;;;;;;;;;5094313;28;20254;-68
2022/06/21 05:11:44;;;;;;;5.07;4.97;;;;;;;12.42;100.00;65478.66;5103502;28;20313;-68
2022/06/21 05:14:23;;;;;;;5.30;4.90;;;;;;;12.54;100.00;65494.06;5094214;28;20244;-70
2022/06/21 05:16:50;;;;;;;6.27;5.77;;;;;;;12.61;100.00;65496.63;5094962;28;20219;-69
2022/06/21 05:19:27;;;;;;;5.17;4.80;;;;;;;;;;5094215;28;20198;-68
2022/06/21 05:22:12;;;;;;;7.37;5.53;;;;;;;12.79;100.00;65516.63;5093613;28;20218;-69
2022/06/21 05:24:39;;;;;;;4.97;4.77;;;;;;;12.86;100.00;65529.59;5094466;28;20176;-68
2022/06/21 05:27:37;;;;;;;5.30;4.90;;;;;;;12.81;100.00;65518.28;5107538;28;20189;-69
2022/06/21 05:30:40;;;;;;;5.17;4.83;;;;;;;12.94;100.00;65545.75;5095919;28;20201;-69
2022/06/21 05:33:21;;;;;;;4.60;4.50;;;;;;;13.02;100.00;65539.00;5110144;28;20701;-69
2022/06/21 05:35:48;;;;;;;10.03;5.17;;;;;;;13.24;100.00;65564.94;5101520;28;20685;-69
2022/06/21 05:38:21;;;;;;;4.90;4.80;;;;;;;13.28;100.00;65567.31;5094522;28;20206;-69
2022/06/21 05:41:07;;;;;;;5.47;5.03;;;;;;;13.42;100.00;65582.88;5092748;28;20235;-69
2022/06/21 05:43:39;;;;;;;4.87;4.47;;;;;;;13.54;100.00;65603.50;5094796;28;20173;-69
2022/06/21 05:46:09;;;;;;;5.40;5.10;;;;;;;;;;5094071;28;20174;-69
2022/06/21 05:48:40;;;;;;;6.37;4.53;;;;;;;13.69;100.00;65617.00;5094552;28;20631;-69
2022/06/21 05:51:07;;;;;;;4.33;4.23;;;;;;;;;;5094266;28;20196;-69
2022/06/21 05:53:37;;;;;;;4.43;4.23;;;;;;;;;;5098373;28;20189;-69
2022/06/21 05:56:08;;;;;;;4.77;4.17;;;;;;;13.99;100.00;65647.19;5104146;28;20230;-69
2022/06/21 05:58:40;;;;;;;4.87;4.47;;;;;;;14.01;99.25;65655.19;5093725;28;20590;-69
2022/06/21 06:01:33;;;;;;;5.37;4.80;;;;;;;14.16;97.86;65663.47;5094660;28;20224;-70
2022/06/21 06:04:06;;;;;;;8.43;4.53;;;;;;;14.26;96.68;65681.88;5093417;28;20703;-69
2022/06/21 06:06:34;;;;;;;4.60;4.27;;;;;;;14.31;95.66;65690.59;5092951;28;20203;-70
2022/06/21 06:09:09;;;;;;;5.83;4.90;;;;;;;14.32;94.72;65693.78;5093353;28;20231;-69
2022/06/21 06:12:14;;;;;;;4.00;4.00;;;;;;;14.34;94.97;65682.94;5093420;28;20568;-69
2022/06/21 06:14:49;;;;;;;4.43;4.07;;;;;;;14.51;95.41;65703.94;5075076;28;20321;-70
2022/06/21 06:17:23;;;;;;;4.60;4.33;;;;;;;14.56;93.68;65712.63;5093925;28;20212;-70
2022/06/21 06:19:57;;;;;;;5.10;4.77;;;;;;;14.60;93.62;65716.53;5093363;28;20185;-70
2022/06/21 06:22:34;;;;;;;5.57;5.03;;;;;;;14.70;93.01;65725.06;5093115;28;20284;-69
2022/06/21 06:25:16;;;;;;;4.90;4.50;;;;;;;14.79;93.80;65737.13;5093854;28;20189;-69
2022/06/21 06:27:50;;;;;;;4.50;4.40;;;;;;;;;;5098672;28;20189;-72
2022/06/21 06:30:23;;;;;;;4.50;4.23;;;;;;;15.15;93.11;65771.41;5093608;28;20217;-70
2022/06/21 06:33:03;;;;;;;4.70;4.60;;;;;;;15.23;91.26;65782.38;5092975;28;20207;-70
2022/06/21 06:35:30;;;;;;;5.57;5.13;;;;;;;15.25;90.75;65784.59;5093434;28;20201;-72
2022/06/21 06:37:57;;;;;;;4.53;4.33;;;;;;;15.30;90.64;65795.94;5092633;28;20200;-69
2022/06/21 06:40:27;;;;;;;4.87;4.77;;;;;;;15.42;90.49;65800.88;5104719;28;20219;-70
2022/06/21 06:43:02;;;;;;;11.40;5.33;;;;;;;15.50;90.27;65811.84;5113705;28;20269;-69
2022/06/21 06:45:34;;;;;;;6.00;4.50;;;;;;;15.63;89.70;65826.91;5094649;28;20191;-69
2022/06/21 06:48:05;;;;;;;4.93;4.73;;;;;;;15.74;88.92;65838.59;5093431;28;20566;-70
2022/06/21 06:50:45;;;;;;;9.80;4.70;;;;;;;15.77;87.54;65841.94;5106744;28;20185;-69
2022/06/21 06:53:15;;;;;;;5.30;4.93;;;;;;;15.75;87.48;65836.53;5108440;28;20266;-69
2022/06/21 06:55:46;;;;;;;4.10;4.00;;;;;;;15.87;87.09;65852.53;5098656;28;20292;-69
2022/06/21 06:58:40;;;;;;;3.73;3.63;;;;;;;15.99;85.29;65863.25;5098042;28;20186;-69
2022/06/21 07:01:13;;;;;;;3.57;3.37;;;;;;;15.96;82.92;65862.53;5097555;28;20231;-70
2022/06/21 07:03:47;;;;;;;3.07;3.07;;;;;;;15.87;83.58;65845.22;5097616;28;20191;-70
2022/06/21 07:06:19;;;;;;;4.67;3.30;;;;;;;15.96;83.80;65862.53;5097615;28;20563;-69
2022/06/21 07:08:59;;;;;;;3.47;3.13;;;;;;;16.10;83.73;65877.59;5097252;28;20182;-69
2022/06/21 07:11:47;;;;;;;3.97;3.77;;;;;;;16.21;84.02;65887.22;5097314;28;20262;-69
2022/06/21 07:14:19;;;;;;;4.30;3.60;;;;;;;16.29;84.16;65900.81;5097629;28;20184;-69
2022/06/21 07:16:50;;;;;;;3.20;3.20;;;;;;;16.38;83.19;65908.78;5099554;28;20738;-69
2022/06/21 07:19:17;;;;;;;3.20;3.10;;;;;;;16.56;82.33;65920.41;5099969;28;20197;-69
2022/06/21 07:21:44;;;;;;;3.17;3.17;;;;;;;16.58;81.69;65927.88;5096139;28;20737;-69
2022/06/21 07:24:19;;;;;;;3.37;3.17;;;;;;;;;;5104671;28;20208;-70
2022/06/21 07:27:03;;;;;;;3.03;3.00;;;;;;;;;;5104919;28;20193;-70
2022/06/21 07:29:41;;;;;;;3.67;3.40;;;;;;;16.72;80.87;65943.50;5106086;28;20251;-70
2022/06/21 07:32:09;;;;;;;3.50;3.40;;;;;;;;;;5102152;28;20216;-69
2022/06/21 07:34:37;;;;;;;2.83;2.63;;;;;;;;;;5107734;28;20243;-69
2022/06/21 07:37:20;;;;;;;3.43;3.43;;;;;;;16.51;79.31;65920.66;5107547;28;20182;-70
2022/06/21 07:39:52;;;;;;;3.73;3.50;;;;;;;16.40;79.46;65915.69;5097237;28;20224;-70
2022/06/21 07:42:28;;;;;;;3.33;3.13;;;;;;;;;;5100619;28;20755;-70
2022/06/21 07:45:02;;;;;;;3.03;2.70;;;;;;;;;;5108245;28;20224;-69
2022/06/21 07:47:32;;;;;;;3.23;3.13;;;;;;;;;;5102293;28;20704;-69
2022/06/21 07:50:14;;;;;;;2.87;2.77;;;;;;;16.80;79.23;65953.94;5112543;28;20207;-70
2022/06/21 07:53:00;;;;;;;3.40;2.20;;;;;;;;;;5100871;28;20329;-69
2022/06/21 07:55:44;;;;;;;3.70;3.30;;;;;;;16.87;77.89;65967.53;5103452;28;20205;-69
2022/06/21 07:58:20;;;;;;;2.63;2.53;;;;;;;16.95;77.20;65978.53;5103550;28;20245;-69
2022/06/21 08:06:42;;;;;;;3.80;3.33;;;;;;;17.13;75.92;65990.16;5115940;28;20600;-69
2022/06/21 08:09:13;;;;;;;4.43;3.87;;;;;;;17.17;76.61;65994.63;5116567;28;20187;-70
2022/06/21 08:11:41;;;;;;;3.43;3.30;;;;;;;;;;5096336;28;20217;-71
2022/06/21 08:14:08;;;;;;;3.43;3.23;;;;;;;;;;5100668;28;20194;-70
2022/06/21 08:16:46;;;;;;;3.60;3.50;;;;;;;17.07;77.40;65984.00;5097540;28;20266;-70
2022/06/21 08:19:33;;;;;;;7.10;3.40;;;;;;;17.09;78.55;65985.69;5096240;28;20193;-70
2022/06/21 08:22:08;;;;;;;7.97;3.57;;;;;;;17.01;77.87;65977.34;5113562;28;20213;-70
2022/06/21 08:25:03;;;;;;;3.67;3.57;;;;;;;16.97;79.04;65978.13;5101422;28;20551;-69
2022/06/21 08:28:12;;;;;;;3.60;3.40;;;;;;;17.09;77.00;65983.63;5072566;28;20266;-69
2022/06/21 08:30:41;;;;;;;3.90;3.70;;;;;;;;;;5093055;28;20205;-69
2022/06/21 08:33:11;;;;;;;7.97;3.10;;;;;;;;;;5115978;28;20205;-69
2022/06/21 08:35:49;;;;;;;3.37;3.23;;;;;;;17.56;74.80;66037.53;5115925;28;20236;-69
2022/06/21 08:38:37;;;;;;;3.40;3.00;;;;;;;17.50;74.15;66030.84;5097302;28;20221;-70
2022/06/21 08:44:31;;;;;;;2.70;2.50;;;;;;;17.46;71.77;66023.78;5095970;28;20229;-69
2022/06/21 08:47:17;;;;;;;2.40;2.40;;;;;;;17.62;72.55;66044.22;5106689;28;20221;-69
2022/06/21 08:50:24;;;;;;;3.10;2.47;;;;;;;17.77;71.38;66060.97;5095700;28;20200;-70
2022/06/21 08:53:10;;;;;;;2.17;2.17;;;;;;;;;;5095838;28;20212;-72
2022/06/21 08:55:55;;;;;;;2.60;2.60;;;;;;;17.98;70.00;66075.41;5077646;28;20650;-71
2022/06/21 08:58:22;;;;;;;2.77;2.67;;;;;;;;;;5090569;28;20190;-70
2022/06/21 09:01:14;;;;;;;2.73;2.50;;;;;;;18.25;69.91;66112.88;5095378;28;20267;-69
2022/06/21 09:04:00;;;;;;;2.47;2.47;;;;;;;18.37;68.97;66118.38;5068593;28;20232;-68
2022/06/21 09:06:53;;;;;;;3.30;2.83;;;;;;;18.49;67.87;66131.22;5106326;28;20242;-70
2022/06/21 09:09:41;;;;;;;2.47;2.27;;;;;;;18.41;68.20;66120.75;5095974;28;20273;-69
2022/06/21 09:12:26;;;;;;;7.60;2.37;;;;;;;;;;5098197;28;20268;-69
2022/06/21 09:15:08;;;;;;;6.43;2.37;;;;;;;;;;5095092;28;20269;-68
2022/06/21 09:17:54;;;;;;;1.60;1.60;;;;;;;18.68;66.76;66160.88;5094803;28;20272;-68
2022/06/21 09:20:26;;;;;;;2.47;2.33;;;;;;;18.72;65.83;66164.22;5104278;28;20545;-70
2022/06/21 09:23:51;;;;;;;3.30;2.93;;;;;;;18.62;64.87;66150.97;5098183;28;20255;-70
2022/06/21 09:26:38;;;;;;;3.30;2.40;;;;;;;18.44;64.75;66134.09;5105874;28;20200;-70
2022/06/21 09:29:10;;;;;;;2.40;2.40;;;;;;;;;;5115297;28;20601;-68
2022/06/21 09:31:54;;;;;;;3.23;2.57;;;;;;;18.53;67.38;66154.09;5115369;28;20236;-70
2022/06/21 09:34:47;;;;;;;2.37;2.37;;;;;;;18.60;67.00;66149.31;5115364;28;20181;-68
2022/06/21 09:37:41;;;;;;;2.27;2.17;;;;;;;18.78;67.83;66170.94;5110965;28;20229;-68
2022/06/21 09:40:22;;;;;;;3.23;2.40;;;;;;;18.83;67.72;66179.69;5115101;28;20173;-68
2022/06/21 09:43:08;;;;;;;2.43;2.33;;;;;;;;;;5114531;28;20216;-69
2022/06/21 09:45:42;;;;;;;3.57;2.43;;;;;;;18.94;66.04;66192.00;5105532;28;20212;-70
2022/06/21 09:48:13;;;;;;;2.50;2.43;;;;;;;18.90;64.54;66184.88;5098663;28;20600;-70
2022/06/21 09:51:06;;;;;;;8.30;2.53;;;;;;;;;;5083626;28;20212;-69
2022/06/21 09:53:32;;;;;;;3.53;2.80;;;;;;;18.90;65.04;66181.69;5076174;28;20193;-69
2022/06/21 09:56:04;;;;;;;2.43;2.23;;;;;;;;;;5101597;28;20252;-69
2022/06/21 09:58:52;;;;;;;5.57;2.43;;;;;;;18.96;66.88;66196.28;5103949;28;20185;-69
2022/06/21 10:01:22;;;;;;;2.27;2.27;;;;;;;;;;5098128;28;20571;-70
2022/06/21 10:04:13;;;;;;;6.60;2.80;;;;;;;19.08;66.10;66196.00;5113253;28;20193;-70
2022/06/21 10:06:56;;;;;;;2.23;2.13;;;;;;;;;;5101769;28;20174;-69
2022/06/21 10:10:06;;;;;;;3.83;2.30;;;;;;;18.90;66.12;66190.16;5097397;28;20588;-70
2022/06/21 10:12:48;;;;;;;2.07;1.97;;;;;;;18.98;65.06;66198.53;5105549;28;20205;-70
2022/06/21 10:15:23;;;;;;;2.80;2.17;;;;;;;18.95;65.32;66187.84;5105094;28;20654;-70
2022/06/21 10:18:11;;;;;;;2.70;2.70;;;;;;;;;;5095864;28;20678;-70
2022/06/21 10:20:37;;;;;;;2.00;2.00;;;;;;;;;;5104472;28;20186;-71
2022/06/21 10:23:07;;;;;;;2.37;2.23;;;;;;;18.86;66.02;66179.84;5096641;28;20715;-70
2022/06/21 10:25:48;;;;;;;2.40;2.40;;;;;;;18.79;66.10;66172.63;5102352;28;20193;-70
2022/06/21 10:28:47;;;;;;;2.53;2.53;;;;;;;18.94;67.08;66186.72;5100565;28;20189;-69
2022/06/21 10:31:25;;;;;;;2.20;2.20;;;;;;;;;;5040358;28;20336;-70
2022/06/21 10:33:54;;;;;;;6.40;2.70;;;;;;;;;;5099994;28;20612;-69
2022/06/21 10:36:58;;;;;;;2.40;2.30;;;;;;;19.03;65.57;66198.84;5096161;28;20241;-70
2022/06/21 10:39:55;;;;;;;2.23;2.23;;;;;;;19.09;65.92;66205.00;5095632;28;20224;-70
2022/06/21 10:42:49;;;;;;;3.03;1.90;;;;;;;;;;5098260;28;20682;-69
2022/06/21 10:45:33;;;;;;;2.40;2.10;;;;;;;19.36;63.46;66231.94;5101166;28;20602;-71
2022/06/21 10:47:59;;;;;;;2.17;2.17;;;;;;;;;;5094977;28;20185;-69
2022/06/21 10:50:46;;;;;;;2.10;2.10;;;;;;;19.27;62.01;66217.19;5100266;28;20609;-69
2022/06/21 10:53:27;;;;;;;3.63;2.13;;;;;;;19.16;63.03;66210.19;5100013;28;20213;-70
2022/06/21 10:59:06;;;;;;;2.53;2.40;;;;;;;19.23;62.40;66220.63;5097154;28;20246;-75
2022/06/21 11:01:48;;;;;;;2.80;2.23;;;;;;;19.26;63.75;66226.59;5078305;28;20225;-71
2022/06/21 11:04:25;;;;;;;2.07;1.90;;;;;;;;;;5100680;28;20229;-69
2022/06/21 11:07:03;;;;;;;6.63;1.87;;;;;;;19.25;63.56;66223.41;5112221;28;20211;-70
2022/06/21 11:09:46;;;;;;;4.27;2.57;;;;;;;19.31;63.40;66226.94;5110767;28;20213;-70
2022/06/21 11:15:20;;;;;;;1.70;1.60;;;;;;;19.65;65.02;66259.13;5113342;28;20246;-71
2022/06/21 11:17:59;;;;;;;2.97;2.13;;;;;;;;;;5106546;28;20555;-69
2022/06/21 11:20:33;;;;;;;1.80;1.80;;;;;;;;;;5113403;28;20204;-69
2022/06/21 11:23:18;;;;;;;2.23;2.17;;;;;;;19.84;61.42;66287.69;5111028;28;20224;-71
2022/06/21 11:25:53;;;;;;;1.97;1.87;;;;;;;19.84;61.04;66287.69;5102566;28;20712;-69
2022/06/21 11:28:36;;;;;;;5.30;2.30;;;;;;;19.91;61.64;66297.56;5093242;28;20188;-71
2022/06/21 11:31:14;;;;;;;4.80;2.00;;;;;;;;;;5093170;28;20697;-70
2022/06/21 11:33:45;;;;;;;2.30;2.30;;;;;;;20.05;60.71;66308.50;5092970;28;20224;-70
2022/06/21 11:36:22;;;;;;;3.97;2.33;;;;;;;20.08;61.35;66305.47;5092839;28;20233;-70
2022/06/21 11:39:07;;;;;;;2.53;2.43;;;;;;;20.26;59.70;66330.88;5096240;28;20174;-69
2022/06/21 11:42:06;;;;;;;1.80;1.70;;;;;;;20.31;62.13;66342.28;5096865;28;20225;-70
2022/06/21 11:45:01;;;;;;;2.27;1.87;;;;;;;20.34;59.20;66345.06;5097159;28;20181;-70
2022/06/21 11:47:49;;;;;;;2.00;1.90;;;;;;;20.31;59.75;66337.00;5096496;28;20216;-69
2022/06/21 11:50:20;;;;;;;2.40;1.97;;;;;;;20.24;60.52;66329.19;5096717;28;20185;-70
2022/06/21 11:53:23;;;;;;;2.57;2.37;;;;;;;20.19;60.43;66328.31;5096947;28;20206;-69
2022/06/21 11:56:02;;;;;;;3.17;2.33;;;;;;;20.08;61.91;66311.31;5096533;28;20220;-69
2022/06/21 11:58:38;;;;;;;3.97;2.87;;;;;;;20.03;61.28;66311.00;5096631;28;20223;-69
2022/06/21 12:01:13;;;;;;;2.73;2.10;;;;;;;;;;5103586;28;20596;-70
2022/06/21 12:03:46;;;;;;;1.87;1.77;;;;;;;20.03;61.96;66308.34;5100186;28;20221;-71
2022/06/21 12:06:17;;;;;;;1.50;1.50;;;;;;;20.06;61.37;66304.34;5083703;28;20743;-70
2022/06/21 12:09:15;;;;;;;2.20;2.20;;;;;;;;;;5097605;28;20189;-71
2022/06/21 12:12:18;;;;;;;2.50;2.13;;;;;;;20.09;58.57;66312.44;5094693;28;20623;-70
2022/06/21 12:14:55;;;;;;;2.30;2.30;;;;;;;;;;5098043;28;20212;-70
2022/06/21 12:17:46;;;;;;;3.33;2.27;;;;;;;20.07;59.07;66310.19;5096623;28;20204;-70
2022/06/21 12:20:39;;;;;;;3.70;2.47;;;;;;;;;;5079826;28;20209;-70
2022/06/21 12:23:18;;;;;;;2.17;2.07;;;;;;;20.14;58.12;66320.09;5092480;28;20643;-70
2022/06/21 12:25:45;;;;;;;2.30;2.30;;;;;;;20.18;58.54;66316.66;5096875;28;20205;-70
2022/06/21 12:28:15;;;;;;;1.93;1.90;;;;;;;20.24;59.97;66328.63;5099026;28;20234;-70
2022/06/21 12:31:09;;;;;;;3.50;2.40;;;;;;;20.25;59.48;66332.38;5099461;28;20182;-70
2022/06/21 12:33:37;;;;;;;2.53;2.00;;;;;;;20.29;59.62;66334.22;5112484;28;20235;-71
2022/06/21 12:36:10;;;;;;;9.70;2.77;;;;;;;;;;5103492;28;20209;-69
2022/06/21 12:38:42;;;;;;;1.97;1.97;;;;;;;20.22;58.32;66334.31;5113616;28;20682;-69
2022/06/21 12:41:27;;;;;;;2.20;2.10;;;;;;;;;;5099995;28;20197;-70
2022/06/21 12:44:00;;;;;;;7.10;2.33;;;;;;;;;;5095653;28;20182;-69
2022/06/21 12:46:39;;;;;;;2.40;2.30;;;;;;;20.29;59.56;66340.06;5096939;28;20613;-70
2022/06/21 12:49:24;;;;;;;1.53;1.53;;;;;;;;;;5097894;28;20536;-70
2022/06/21 12:51:58;;;;;;;1.97;1.97;;;;;;;20.42;58.64;66354.03;5101166;28;20210;-70
2022/06/21 12:54:43;;;;;;;2.43;2.37;;;;;;;20.39;57.87;66340.13;5097416;28;20234;-70
2022/06/21 12:57:34;;;;;;;1.87;1.77;;;;;;;20.39;58.87;66353.31;5111674;28;20250;-70
2022/06/21 13:00:19;;;;;;;1.60;1.60;;;;;;;;;;5110221;28;20181;-69
2022/06/21 13:02:57;;;;;;;1.80;1.80;;;;;;;;;;5111090;28;20193;-70
2022/06/21 13:05:26;;;;;;;2.07;1.97;;;;;;;;;;5095024;28;20178;-69